createdAt,value
2023-06-24T00:02:19.067Z,16.13
2023-06-24T00:04:45.676Z,16.12
2023-06-24T00:07:12.319Z,16.08
2023-06-24T00:09:39.033Z,16.07
2023-06-24T00:12:06.262Z,16.06
2023-06-24T00:14:32.807Z,16.09
2023-06-24T00:16:59.441Z,16.05
2023-06-24T00:19:26.802Z,15.94
2023-06-24T00:21:53.871Z,15.88
2023-06-24T00:24:23.801Z,15.83
2023-06-24T00:26:50.372Z,15.76
2023-06-24T00:29:17.006Z,15.74
2023-06-24T00:31:43.638Z,15.74
2023-06-24T00:34:10.323Z,15.72
2023-06-24T00:36:36.902Z,15.74
2023-06-24T00:39:03.724Z,15.75
2023-06-24T00:41:31.272Z,15.76
2023-06-24T00:43:58.134Z,15.76
2023-06-24T00:46:28.060Z,15.74
2023-06-24T00:48:56.102Z,15.66
2023-06-24T00:51:22.841Z,15.59
2023-06-24T00:53:49.456Z,15.53
2023-06-24T00:56:16.037Z,15.52
2023-06-24T00:58:42.628Z,15.48
2023-06-24T01:01:09.173Z,15.47
2023-06-24T01:03:35.777Z,15.51
2023-06-24T01:06:02.341Z,15.53
2023-06-24T01:08:28.946Z,15.56
2023-06-24T01:10:55.483Z,15.59
2023-06-24T01:13:22.379Z,15.59
2023-06-24T01:15:48.993Z,15.60
2023-06-24T01:18:39.635Z,15.61
2023-06-24T01:21:27.440Z,15.64
2023-06-24T01:23:54.048Z,15.65
2023-06-24T01:26:23.297Z,15.65
2023-06-24T01:28:55.615Z,15.65
2023-06-24T01:31:40.318Z,15.70
2023-06-24T01:34:19.138Z,15.66
2023-06-24T01:37:06.050Z,15.66
2023-06-24T01:39:32.694Z,15.62
2023-06-24T01:42:07.675Z,15.59
2023-06-24T01:44:34.235Z,15.53
2023-06-24T01:47:00.925Z,15.52
2023-06-24T01:49:29.380Z,15.52
2023-06-24T01:51:57.183Z,15.51
2023-06-24T01:54:23.744Z,15.49
2023-06-24T01:56:50.898Z,15.48
2023-06-24T01:59:18.166Z,15.45
2023-06-24T02:01:47.538Z,15.43
2023-06-24T02:04:13.953Z,15.40
2023-06-24T02:06:40.618Z,15.32
2023-06-24T02:09:07.201Z,15.31
2023-06-24T02:11:34.018Z,15.29
2023-06-24T02:14:00.708Z,15.24
2023-06-24T02:16:27.291Z,15.22
2023-06-24T02:18:53.991Z,15.20
2023-06-24T02:21:20.575Z,15.17
2023-06-24T02:23:47.760Z,15.15
2023-06-24T02:26:14.397Z,15.14
2023-06-24T02:28:40.939Z,15.09
2023-06-24T02:31:07.545Z,15.05
2023-06-24T02:33:34.089Z,15.04
2023-06-24T02:36:00.652Z,14.99
2023-06-24T02:38:28.962Z,15.00
2023-06-24T02:40:55.720Z,15.00
2023-06-24T02:43:22.303Z,14.97
2023-06-24T02:45:48.831Z,14.98
2023-06-24T02:48:15.416Z,14.93
2023-06-24T02:50:41.997Z,14.91
2023-06-24T02:53:08.920Z,14.89
2023-06-24T02:55:35.651Z,14.87
2023-06-24T02:58:03.247Z,14.84
2023-06-24T03:00:29.808Z,14.83
2023-06-24T03:02:56.492Z,14.86
2023-06-24T03:05:23.160Z,14.85
2023-06-24T03:07:49.736Z,14.84
2023-06-24T03:10:16.326Z,14.82
2023-06-24T03:12:42.891Z,14.81
2023-06-24T03:15:09.767Z,14.81
2023-06-24T03:17:37.310Z,14.78
2023-06-24T03:20:04.199Z,14.78
2023-06-24T03:22:30.728Z,14.77
2023-06-24T03:24:57.338Z,14.76
2023-06-24T03:27:24.244Z,14.77
2023-06-24T03:29:50.829Z,14.77
2023-06-24T03:32:17.458Z,14.77
2023-06-24T03:34:44.033Z,14.80
2023-06-24T03:37:10.654Z,14.86
2023-06-24T03:39:37.178Z,14.85
2023-06-24T03:42:03.960Z,14.86
2023-06-24T03:44:30.525Z,14.82
2023-06-24T03:46:57.121Z,14.85
2023-06-24T03:49:23.684Z,14.87
2023-06-24T03:51:50.295Z,14.87
2023-06-24T03:54:16.895Z,14.90
2023-06-24T03:56:43.435Z,14.93
2023-06-24T03:59:10.040Z,14.98
2023-06-24T04:01:36.648Z,15.02
2023-06-24T04:04:04.263Z,15.03
2023-06-24T04:06:30.895Z,15.09
2023-06-24T04:08:57.512Z,15.18
2023-06-24T04:11:24.160Z,15.23
2023-06-24T04:13:50.770Z,15.30
2023-06-24T04:16:17.405Z,15.44
2023-06-24T04:18:43.979Z,15.51
2023-06-24T04:21:10.556Z,15.52
2023-06-24T04:23:37.129Z,15.60
2023-06-24T04:26:03.720Z,15.65
2023-06-24T04:28:30.308Z,15.69
2023-06-24T04:30:57.222Z,15.78
2023-06-24T04:33:23.813Z,15.84
2023-06-24T04:35:50.431Z,15.86
2023-06-24T04:38:17.081Z,15.89
2023-06-24T04:40:43.653Z,15.93
2023-06-24T04:43:10.280Z,15.94
2023-06-24T04:45:37.081Z,15.89
2023-06-24T04:48:03.972Z,15.81
2023-06-24T04:50:30.592Z,15.80
2023-06-24T04:52:57.174Z,15.84
2023-06-24T04:55:23.823Z,15.93
2023-06-24T04:57:50.424Z,16.01
2023-06-24T05:00:17.061Z,16.06
2023-06-24T05:02:43.715Z,16.04
2023-06-24T05:05:10.440Z,16.05
2023-06-24T05:07:37.163Z,16.10
2023-06-24T05:10:04.026Z,16.17
2023-06-24T05:12:30.662Z,16.20
2023-06-24T05:14:57.316Z,16.23
2023-06-24T05:17:24.064Z,16.30
2023-06-24T05:19:50.806Z,16.41
2023-06-24T05:22:17.440Z,16.49
2023-06-24T05:24:43.976Z,16.52
2023-06-24T05:27:10.552Z,16.58
2023-06-24T05:29:37.148Z,16.58
2023-06-24T05:32:04.030Z,16.60
2023-06-24T05:34:31.463Z,16.63
2023-06-24T05:36:58.010Z,16.63
2023-06-24T05:39:25.228Z,16.71
2023-06-24T05:41:51.942Z,16.71
2023-06-24T05:44:18.580Z,16.73
2023-06-24T05:46:47.956Z,16.71
2023-06-24T05:49:14.508Z,16.74
2023-06-24T05:51:41.129Z,16.77
2023-06-24T05:54:07.678Z,16.82
2023-06-24T05:56:34.316Z,16.84
2023-06-24T05:59:00.965Z,16.92
2023-06-24T06:01:28.103Z,16.93
2023-06-24T06:03:54.707Z,16.93
2023-06-24T06:06:21.370Z,16.95
2023-06-24T06:08:48.520Z,16.96
2023-06-24T06:11:15.057Z,17.09
2023-06-24T06:13:41.649Z,17.18
2023-06-24T06:16:08.249Z,17.23
2023-06-24T06:18:34.810Z,17.24
2023-06-24T06:21:01.435Z,17.25
2023-06-24T06:23:28.007Z,17.28
2023-06-24T06:25:54.570Z,17.23
2023-06-24T06:28:21.175Z,17.24
2023-06-24T06:30:47.858Z,17.35
2023-06-24T06:33:14.480Z,17.49
2023-06-24T06:35:41.075Z,17.56
2023-06-24T06:38:07.668Z,17.63
2023-06-24T06:40:34.223Z,17.68
2023-06-24T06:43:00.851Z,17.66
2023-06-24T06:45:27.391Z,17.64
2023-06-24T06:47:54.191Z,17.62
2023-06-24T06:50:20.852Z,17.68
2023-06-24T06:52:47.525Z,17.76
2023-06-24T06:55:14.149Z,17.78
2023-06-24T06:57:40.766Z,17.76
2023-06-24T07:00:07.949Z,17.81
2023-06-24T07:02:34.600Z,17.80
2023-06-24T07:05:01.197Z,17.87
2023-06-24T07:07:27.882Z,17.93
2023-06-24T07:09:54.487Z,17.98
2023-06-24T07:12:21.140Z,18.04
2023-06-24T07:14:47.817Z,18.11
2023-06-24T07:17:14.481Z,18.12
2023-06-24T07:19:41.135Z,18.01
2023-06-24T07:22:07.827Z,17.94
2023-06-24T07:24:34.421Z,17.97
2023-06-24T07:27:01.010Z,18.09
2023-06-24T07:29:27.635Z,18.13
2023-06-24T07:31:54.255Z,18.14
2023-06-24T07:34:20.861Z,18.22
2023-06-24T07:36:47.406Z,18.27
2023-06-24T07:39:14.043Z,18.37
2023-06-24T07:41:40.629Z,18.49
2023-06-24T07:44:07.192Z,18.63
2023-06-24T07:46:33.904Z,18.76
2023-06-24T07:49:00.490Z,18.92
2023-06-24T07:51:27.071Z,19.06
2023-06-24T07:53:53.673Z,19.09
2023-06-24T07:56:20.264Z,19.07
2023-06-24T07:58:46.884Z,19.11
2023-06-24T08:01:13.516Z,19.17
2023-06-24T08:03:40.235Z,19.23
2023-06-24T08:06:06.975Z,19.23
2023-06-24T08:08:33.643Z,19.23
2023-06-24T08:11:00.230Z,19.25
2023-06-24T08:13:26.893Z,19.24
2023-06-24T08:15:53.533Z,19.29
2023-06-24T08:18:20.112Z,19.28
2023-06-24T08:20:46.715Z,19.28
2023-06-24T08:23:13.340Z,19.27
2023-06-24T08:25:40.027Z,19.39
2023-06-24T08:28:06.586Z,19.48
2023-06-24T08:30:33.209Z,19.56
2023-06-24T08:32:59.848Z,19.72
2023-06-24T08:35:26.446Z,19.88
2023-06-24T08:37:53.065Z,20.00
2023-06-24T08:40:19.682Z,20.07
2023-06-24T08:42:46.252Z,20.19
2023-06-24T08:45:12.894Z,20.34
2023-06-24T08:47:39.536Z,20.53
2023-06-24T08:50:08.909Z,20.61
2023-06-24T08:52:38.797Z,20.66
2023-06-24T08:55:05.926Z,20.77
2023-06-24T08:57:32.556Z,20.96
2023-06-24T08:59:59.201Z,21.10
2023-06-24T09:02:25.843Z,21.18
2023-06-24T09:04:52.549Z,21.31
2023-06-24T09:07:28.568Z,21.35
2023-06-24T09:09:55.302Z,21.43
2023-06-24T09:12:21.890Z,21.67
2023-06-24T09:14:51.555Z,21.91
2023-06-24T09:17:18.688Z,22.19
2023-06-24T09:19:45.310Z,22.34
2023-06-24T09:22:11.926Z,22.46
2023-06-24T09:24:38.652Z,22.65
2023-06-24T09:27:06.046Z,22.77
2023-06-24T09:29:34.676Z,22.81
2023-06-24T09:32:01.741Z,22.88
2023-06-24T09:34:29.515Z,23.06
2023-06-24T09:36:57.147Z,23.28
2023-06-24T09:39:30.223Z,23.35
2023-06-24T09:42:01.813Z,23.44
2023-06-24T09:44:28.863Z,23.67
2023-06-24T09:46:56.069Z,23.81
2023-06-24T09:49:22.970Z,23.93
2023-06-24T09:51:50.916Z,24.05
2023-06-24T09:54:17.503Z,24.08
2023-06-24T09:56:44.777Z,24.10
2023-06-24T09:59:11.920Z,24.09
2023-06-24T10:01:39.947Z,24.16
2023-06-24T10:04:09.705Z,24.39
2023-06-24T10:06:36.672Z,24.48
2023-06-24T10:09:03.411Z,24.51
2023-06-24T10:11:30.057Z,24.55
2023-06-24T10:13:56.650Z,24.71
2023-06-24T10:16:23.250Z,24.74
2023-06-24T10:18:49.875Z,24.76
2023-06-24T10:21:16.600Z,24.60
2023-06-24T10:23:44.235Z,24.77
2023-06-24T10:26:11.402Z,24.84
2023-06-24T10:29:05.945Z,25.02
2023-06-24T10:31:41.505Z,24.85
2023-06-24T10:34:19.940Z,24.96
2023-06-24T10:36:56.043Z,24.97
2023-06-24T10:39:53.469Z,25.20
2023-06-24T10:42:29.161Z,25.49
2023-06-24T10:44:57.126Z,25.59
2023-06-24T10:47:24.107Z,25.71
2023-06-24T10:49:51.676Z,25.77
2023-06-24T10:52:22.646Z,25.89
2023-06-24T10:54:49.615Z,25.80
2023-06-24T10:57:16.321Z,25.92
2023-06-24T10:59:43.262Z,25.90
2023-06-24T11:02:10.193Z,25.92
2023-06-24T11:04:47.247Z,25.88
2023-06-24T11:07:13.937Z,26.02
2023-06-24T11:09:43.681Z,26.18
2023-06-24T11:12:10.916Z,26.19
2023-06-24T11:14:37.802Z,26.21
2023-06-24T11:17:04.953Z,26.30
2023-06-24T11:19:31.739Z,26.37
2023-06-24T11:22:00.736Z,26.39
2023-06-24T11:24:30.679Z,26.50
2023-06-24T11:26:57.355Z,26.67
2023-06-24T11:29:24.226Z,26.79
2023-06-24T11:31:51.294Z,26.95
2023-06-24T11:34:17.992Z,26.93
2023-06-24T11:36:44.613Z,26.98
2023-06-24T11:39:24.082Z,27.15
2023-06-24T11:41:51.093Z,27.30
2023-06-24T11:44:21.360Z,27.53
2023-06-24T11:46:48.355Z,27.27
2023-06-24T11:49:14.946Z,27.34
2023-06-24T11:51:49.076Z,27.50
2023-06-24T11:54:17.233Z,27.67
2023-06-24T11:56:44.653Z,27.91
2023-06-24T11:59:20.725Z,27.80
2023-06-24T12:01:56.792Z,27.78
2023-06-24T12:04:28.928Z,27.74
2023-06-24T12:06:55.529Z,27.70
2023-06-24T12:09:22.202Z,27.79
2023-06-24T12:11:48.806Z,27.88
2023-06-24T12:14:15.412Z,28.07
2023-06-24T12:16:42.011Z,28.28
2023-06-24T12:19:08.744Z,28.43
2023-06-24T12:21:35.793Z,28.45
2023-06-24T12:24:05.964Z,28.55
2023-06-24T12:26:32.737Z,28.37
2023-06-24T12:28:59.327Z,28.56
2023-06-24T12:31:26.037Z,28.74
2023-06-24T12:33:52.740Z,28.69
2023-06-24T12:36:22.860Z,28.72
2023-06-24T12:38:49.477Z,28.79
2023-06-24T12:41:16.012Z,28.86
2023-06-24T12:43:42.597Z,28.65
2023-06-24T12:46:09.823Z,28.48
2023-06-24T12:48:36.440Z,27.94
2023-06-24T12:51:03.014Z,27.36
2023-06-24T12:53:29.584Z,27.04
2023-06-24T12:55:56.333Z,26.67
2023-06-24T12:58:24.068Z,26.34
2023-06-24T13:00:50.837Z,26.29
2023-06-24T13:03:17.443Z,26.50
2023-06-24T13:05:44.232Z,26.92
2023-06-24T13:08:10.812Z,27.32
2023-06-24T13:10:37.765Z,27.81
2023-06-24T13:13:04.611Z,28.07
2023-06-24T13:15:31.185Z,28.26
2023-06-24T13:17:57.929Z,28.45
2023-06-24T13:20:24.515Z,28.27
2023-06-24T13:22:51.098Z,27.72
2023-06-24T13:25:17.923Z,27.12
2023-06-24T13:27:44.923Z,26.71
2023-06-24T13:30:12.068Z,26.66
2023-06-24T13:32:38.699Z,27.09
2023-06-24T13:35:05.963Z,27.45
2023-06-24T13:37:32.865Z,27.33
2023-06-24T13:39:59.465Z,27.44
2023-06-24T13:42:26.120Z,27.77
2023-06-24T13:44:52.752Z,27.48
2023-06-24T13:47:19.383Z,27.38
2023-06-24T13:49:46.020Z,27.59
2023-06-24T13:52:12.604Z,27.12
2023-06-24T13:54:39.226Z,26.70
2023-06-24T13:57:05.838Z,26.35
2023-06-24T13:59:32.399Z,26.00
2023-06-24T14:01:58.987Z,25.91
2023-06-24T14:04:25.587Z,25.95
2023-06-24T14:06:52.237Z,25.99
2023-06-24T14:09:18.914Z,25.88
2023-06-24T14:11:45.496Z,26.64
2023-06-24T14:14:12.127Z,27.43
2023-06-24T14:16:38.713Z,27.89
2023-06-24T14:19:05.414Z,27.96
2023-06-24T14:21:32.041Z,27.49
2023-06-24T14:24:04.048Z,26.97
2023-06-24T14:26:38.012Z,26.84
2023-06-24T14:29:04.640Z,27.04
2023-06-24T14:31:31.314Z,26.93
2023-06-24T14:33:57.965Z,26.68
2023-06-24T14:36:24.567Z,26.93
2023-06-24T14:38:51.161Z,27.28
2023-06-24T14:41:17.777Z,27.04
2023-06-24T14:43:44.352Z,26.69
2023-06-24T14:46:10.957Z,26.89
2023-06-24T14:48:37.555Z,26.83
2023-06-24T14:51:04.098Z,27.04
2023-06-24T14:53:30.693Z,26.79
2023-06-24T14:55:57.245Z,26.67
2023-06-24T14:58:23.874Z,26.69
2023-06-24T15:00:50.442Z,26.33
2023-06-24T15:03:17.171Z,25.99
2023-06-24T15:05:43.842Z,25.71
2023-06-24T15:08:10.419Z,25.54
2023-06-24T15:10:37.263Z,25.42
2023-06-24T15:13:04.107Z,25.32
2023-06-24T15:15:30.724Z,25.18
2023-06-24T15:17:57.362Z,25.07
2023-06-24T15:20:24.646Z,25.04
2023-06-24T15:22:51.463Z,24.98
2023-06-24T15:25:18.084Z,24.90
2023-06-24T15:27:44.642Z,24.83
2023-06-24T15:30:11.633Z,24.76
2023-06-24T15:32:38.435Z,24.69
2023-06-24T15:35:05.365Z,24.64
2023-06-24T15:37:32.189Z,24.64
2023-06-24T15:39:58.820Z,24.65
2023-06-24T15:42:25.372Z,24.70
2023-06-24T15:44:53.918Z,24.66
2023-06-24T15:47:20.921Z,24.62
2023-06-24T15:49:47.455Z,24.63
2023-06-24T15:52:14.081Z,24.59
2023-06-24T15:54:40.700Z,24.53
2023-06-24T15:57:07.282Z,24.46
2023-06-24T15:59:33.856Z,24.40
2023-06-24T16:02:00.506Z,24.31
2023-06-24T16:04:27.098Z,24.28
2023-06-24T16:06:53.728Z,24.21
2023-06-24T16:09:20.313Z,24.20
2023-06-24T16:11:47.009Z,24.13
2023-06-24T16:14:13.619Z,24.10
2023-06-24T16:16:40.190Z,24.03
2023-06-24T16:19:06.750Z,24.02
2023-06-24T16:21:33.938Z,23.95
2023-06-24T16:24:00.511Z,23.91
2023-06-24T16:26:28.754Z,23.93
2023-06-24T16:28:57.032Z,23.91
2023-06-24T16:31:23.711Z,23.88
2023-06-24T16:33:50.363Z,23.88
2023-06-24T16:36:16.965Z,23.88
2023-06-24T16:38:43.539Z,23.89
2023-06-24T16:41:10.148Z,23.87
2023-06-24T16:43:36.736Z,23.87
2023-06-24T16:46:03.343Z,23.93
2023-06-24T16:48:29.927Z,23.94
2023-06-24T16:50:56.552Z,24.02
2023-06-24T16:53:23.128Z,23.97
2023-06-24T16:55:49.766Z,23.95
2023-06-24T16:58:16.344Z,23.93
2023-06-24T17:00:42.933Z,23.96
2023-06-24T17:03:09.579Z,24.00
2023-06-24T17:05:36.228Z,24.06
2023-06-24T17:08:02.796Z,24.07
2023-06-24T17:10:29.367Z,24.11
2023-06-24T17:12:55.956Z,24.09
2023-06-24T17:15:22.538Z,24.03
2023-06-24T17:17:49.114Z,24.02
2023-06-24T17:20:15.774Z,24.01
2023-06-24T17:22:42.398Z,24.05
2023-06-24T17:25:09.470Z,24.03
2023-06-24T17:27:36.039Z,24.02
2023-06-24T17:30:02.699Z,24.03
2023-06-24T17:32:29.260Z,23.96
2023-06-24T17:34:55.905Z,23.93
2023-06-24T17:37:22.575Z,23.91
2023-06-24T17:39:49.186Z,23.85
2023-06-24T17:42:15.803Z,23.78
2023-06-24T17:44:42.346Z,23.69
2023-06-24T17:47:08.966Z,23.60
2023-06-24T17:49:35.551Z,23.56
2023-06-24T17:52:02.203Z,23.52
2023-06-24T17:54:28.790Z,23.52
2023-06-24T17:56:56.995Z,23.52
2023-06-24T17:59:23.565Z,23.53
2023-06-24T18:01:50.141Z,23.49
2023-06-24T18:04:17.133Z,23.50
2023-06-24T18:06:44.165Z,23.56
2023-06-24T18:09:10.781Z,23.53
2023-06-24T18:11:37.324Z,23.46
2023-06-24T18:14:03.926Z,23.41
2023-06-24T18:16:30.516Z,23.38
2023-06-24T18:18:57.201Z,23.34
2023-06-24T18:21:23.792Z,23.29
2023-06-24T18:23:50.440Z,23.25
2023-06-24T18:26:17.100Z,23.21
2023-06-24T18:28:44.107Z,23.15
2023-06-24T18:31:10.765Z,23.14
2023-06-24T18:33:37.372Z,23.10
2023-06-24T18:36:04.025Z,23.09
2023-06-24T18:38:30.621Z,23.07
2023-06-24T18:40:57.208Z,23.03
2023-06-24T18:43:23.767Z,23.02
2023-06-24T18:45:50.301Z,22.99
2023-06-24T18:48:16.973Z,22.94
2023-06-24T18:50:43.558Z,22.92
2023-06-24T18:53:10.164Z,22.86
2023-06-24T18:55:36.717Z,22.84
2023-06-24T18:58:03.283Z,22.78
2023-06-24T19:00:29.828Z,22.80
2023-06-24T19:02:56.525Z,22.79
2023-06-24T19:05:23.213Z,22.77
2023-06-24T19:07:49.798Z,22.73
2023-06-24T19:10:16.438Z,22.62
2023-06-24T19:12:43.022Z,22.56
2023-06-24T19:15:09.927Z,22.53
2023-06-24T19:17:36.522Z,22.46
2023-06-24T19:20:05.068Z,22.46
2023-06-24T19:22:31.647Z,22.39
2023-06-24T19:24:58.233Z,22.36
2023-06-24T19:27:24.833Z,22.31
2023-06-24T19:29:51.364Z,22.24
2023-06-24T19:32:18.160Z,22.19
2023-06-24T19:34:44.806Z,22.15
2023-06-24T19:37:11.590Z,22.15
2023-06-24T19:39:38.193Z,22.14
2023-06-24T19:42:05.072Z,22.13
2023-06-24T19:44:31.684Z,22.09
2023-06-24T19:46:58.326Z,22.05
2023-06-24T19:49:25.095Z,22.02
2023-06-24T19:51:51.670Z,21.98
2023-06-24T19:54:18.266Z,21.96
2023-06-24T19:56:44.802Z,21.90
2023-06-24T19:59:11.385Z,21.86
2023-06-24T20:01:37.953Z,21.83
2023-06-24T20:04:05.515Z,21.81
2023-06-24T20:06:32.046Z,21.77
2023-06-24T20:08:58.732Z,21.73
2023-06-24T20:11:25.322Z,21.68
2023-06-24T20:13:51.937Z,21.64
2023-06-24T20:16:18.490Z,21.61
2023-06-24T20:18:46.043Z,21.59
2023-06-24T20:21:12.658Z,21.56
2023-06-24T20:23:39.221Z,21.54
2023-06-24T20:26:05.830Z,21.55
2023-06-24T20:28:32.420Z,21.54
2023-06-24T20:30:59.017Z,21.50
2023-06-24T20:33:25.628Z,21.46
2023-06-24T20:35:52.149Z,21.43
2023-06-24T20:38:18.750Z,21.39
2023-06-24T20:40:45.367Z,21.37
2023-06-24T20:43:11.978Z,21.31
2023-06-24T20:45:38.564Z,21.27
2023-06-24T20:48:05.341Z,21.25
2023-06-24T20:50:31.971Z,21.25
2023-06-24T20:52:58.602Z,21.24
2023-06-24T20:55:25.216Z,21.24
2023-06-24T20:57:51.860Z,21.21
2023-06-24T21:00:20.124Z,21.19
2023-06-24T21:02:48.130Z,21.17
2023-06-24T21:05:14.722Z,21.16
2023-06-24T21:07:41.303Z,21.10
2023-06-24T21:10:08.176Z,21.08
2023-06-24T21:12:40.568Z,21.02
2023-06-24T21:15:17.266Z,20.96
2023-06-24T21:17:43.903Z,20.88
2023-06-24T21:20:10.847Z,20.81
2023-06-24T21:22:37.493Z,20.75
2023-06-24T21:25:04.259Z,20.69
2023-06-24T21:27:30.820Z,20.60
2023-06-24T21:29:58.175Z,20.56
2023-06-24T21:32:24.813Z,20.48
2023-06-24T21:34:51.426Z,20.44
2023-06-24T21:37:18.020Z,20.41
2023-06-24T21:39:44.608Z,20.34
2023-06-24T21:42:11.153Z,20.29
2023-06-24T21:44:37.768Z,20.27
2023-06-24T21:47:04.721Z,20.22
2023-06-24T21:49:31.449Z,20.15
2023-06-24T21:51:58.106Z,20.11
2023-06-24T21:54:24.932Z,20.03
2023-06-24T21:56:51.510Z,19.97
2023-06-24T21:59:19.104Z,19.92
2023-06-24T22:01:46.562Z,19.91
2023-06-24T22:04:13.159Z,19.89
2023-06-24T22:06:39.853Z,19.89
2023-06-24T22:09:06.463Z,19.87
2023-06-24T22:11:35.114Z,19.83
2023-06-24T22:14:03.200Z,19.78
2023-06-24T22:16:29.803Z,19.74
2023-06-24T22:18:56.399Z,19.68
2023-06-24T22:21:22.977Z,19.65
2023-06-24T22:23:49.551Z,19.60
2023-06-24T22:26:16.134Z,19.56
2023-06-24T22:28:42.722Z,19.54
2023-06-24T22:31:09.308Z,19.52
2023-06-24T22:33:36.016Z,19.46
2023-06-24T22:36:02.591Z,19.42
2023-06-24T22:38:29.204Z,19.38
2023-06-24T22:40:55.748Z,19.36
2023-06-24T22:43:22.381Z,19.31
2023-06-24T22:45:50.163Z,19.29
2023-06-24T22:48:16.785Z,19.27
2023-06-24T22:50:43.380Z,19.23
2023-06-24T22:53:09.972Z,19.21
2023-06-24T22:55:36.579Z,19.18
2023-06-24T22:58:03.135Z,19.17
2023-06-24T23:00:29.736Z,19.16
2023-06-24T23:02:56.750Z,19.10
2023-06-24T23:05:23.640Z,19.02
2023-06-24T23:07:50.499Z,18.98
2023-06-24T23:10:17.487Z,18.94
2023-06-24T23:12:44.214Z,18.94
2023-06-24T23:15:11.148Z,18.94
2023-06-24T23:17:37.795Z,18.93
2023-06-24T23:20:04.866Z,18.86
2023-06-24T23:22:31.765Z,18.88
2023-06-24T23:24:58.504Z,18.85
2023-06-24T23:27:25.623Z,18.82
2023-06-24T23:29:53.664Z,18.82
2023-06-24T23:32:20.438Z,18.79
2023-06-24T23:34:50.529Z,18.77
2023-06-24T23:37:17.302Z,18.74
2023-06-24T23:39:44.156Z,18.71
2023-06-24T23:42:11.513Z,18.67
2023-06-24T23:44:38.386Z,18.67
2023-06-24T23:47:07.624Z,18.65
2023-06-24T23:49:34.666Z,18.63
2023-06-24T23:52:01.331Z,18.57
2023-06-24T23:54:27.997Z,18.54
2023-06-24T23:56:54.599Z,18.51
2023-06-24T23:59:21.220Z,18.50
